Texas Voyager — WLIY — position and weather

sailwx.info

Track history (hours):
 
Tides and Currents Weather Stations Pressure Air Temp Water Temp Dewpoint Dewpoint Depression Visibility Wind Speed Wind Dir Waves Ship Positions

Texas Voyager

Owner: Chevron USA Inc., Washington, DC. More information available from US FCC via Universal Licensing System and Coast Guard Vessel Documentation Center.

Last reported at 2018-Feb-20 13:17 UTC. Time now 2018-Feb-21 17:31 UTC.
Position N 27°36' W 082°44'.

Length 182 m; draft 8.5 m.

Type: Tanker. MMSI: 369142000.

Date/timePositionNaut miles runAvg speedWind from/ knotsBaromVisibWave heightAir tempDewpointWater temp
2018-Feb-20 13:17N 27°36' W 082°44'513.7
2018-Feb-20 12:57N 27°37' W 082°39'613.2
2018-Feb-20 12:30N 27°41' W 082°34'612.1
2018-Feb-20 12:00N 27°47' W 082°31'4 7.9
2018-Feb-20 11:30N 27°50' W 082°34'2 4.4
2018-Feb-20 11:00N 27°52' W 082°33'0 0.0
2018-Feb-20 00:49N 27°52' W 082°33'0 0.0
2018-Feb-19 23:37N 27°52' W 082°33'0 0.0
2018-Feb-19 23:19N 27°52' W 082°33'0 0.0
2018-Feb-19 22:07N 27°52' W 082°33'0 0.0
2018-Feb-19 21:55N 27°52' W 082°33'0 0.0
2018-Feb-19 21:13N 27°52' W 082°33'0 0.0
2018-Feb-19 20:49N 27°52' W 082°33'0 0.0
2018-Feb-19 16:58N 27°52' W 082°33'1 2.9
2018-Feb-19 16:30N 27°50' W 082°34'3 6.5
2018-Feb-19 16:00N 27°47' W 082°33'510.2
2018-Feb-19 15:30N 27°48' W 082°27'510.7
2018-Feb-19 15:01N 27°54' W 082°26'1 2.9
2018-Feb-19 14:30N 27°55' W 082°27'0 0.0
2018-Feb-19 14:00N 27°55' W 082°27'0 0.0
2018-Feb-19 13:30N 27°55' W 082°27'0 0.0
2018-Feb-19 13:00N 27°55' W 082°27'0 0.0
2018-Feb-19 12:29N 27°55' W 082°27'0 0.0
2018-Feb-19 11:59N 27°55' W 082°27'0 0.0
2018-Feb-19 11:29N 27°55' W 082°27'0 0.0
2018-Feb-19 10:59N 27°55' W 082°27'0 0.0
2018-Feb-19 10:29N 27°55' W 082°27'0 0.0
2018-Feb-19 09:59N 27°55' W 082°27'0 0.0
2018-Feb-19 09:29N 27°55' W 082°27'0 0.0
2018-Feb-19 08:59N 27°55' W 082°27'0 0.0
2018-Feb-19 08:23N 27°55' W 082°27'0 0.0
2018-Feb-19 07:59N 27°55' W 082°27'0 0.0
2018-Feb-19 07:29N 27°55' W 082°27'0 0.0
2018-Feb-19 06:59N 27°55' W 082°27'0 0.0
2018-Feb-19 06:29N 27°55' W 082°27'0 0.0
2018-Feb-19 05:59N 27°55' W 082°27'0 0.0
2018-Feb-19 05:29N 27°55' W 082°27'0 0.0
2018-Feb-19 04:59N 27°55' W 082°27'0 0.0
2018-Feb-19 04:29N 27°55' W 082°27'0 0.0
2018-Feb-19 03:59N 27°55' W 082°27'0 0.0
2018-Feb-19 03:29N 27°55' W 082°27'0 0.0
2018-Feb-19 02:59N 27°55' W 082°27'0 0.0
2018-Feb-19 02:29N 27°55' W 082°27'0 0.0
2018-Feb-19 01:59N 27°55' W 082°27'0 0.0
2018-Feb-19 01:29N 27°55' W 082°27'0 0.0
2018-Feb-19 00:59N 27°55' W 082°27'0 0.0
2018-Feb-19 00:29N 27°55' W 082°27'0 0.0
2018-Feb-18 23:59N 27°55' W 082°27'0 0.0
2018-Feb-18 23:29N 27°55' W 082°27'0 0.0
2018-Feb-18 22:59N 27°55' W 082°27'0 0.0
2018-Feb-18 22:29N 27°55' W 082°27'0 0.0
2018-Feb-18 21:59N 27°55' W 082°27'0 0.0
2018-Feb-18 21:29N 27°55' W 082°27'0 0.0
2018-Feb-18 20:59N 27°55' W 082°27'0 0.0
2018-Feb-18 20:26N 27°55' W 082°27'0 0.0
2018-Feb-18 19:59N 27°55' W 082°27'0 0.0
2018-Feb-18 19:29N 27°55' W 082°27'0 0.0
2018-Feb-18 18:59N 27°55' W 082°27'0 0.0
2018-Feb-18 18:29N 27°55' W 082°27'0 0.0
2018-Feb-18 17:59N 27°55' W 082°27'0 0.0
2018-Feb-18 17:26N 27°55' W 082°27'0 0.0
2018-Feb-18 16:59N 27°55' W 082°27'0 0.0
2018-Feb-18 16:29N 27°55' W 082°27'0 0.0
2018-Feb-18 15:59N 27°55' W 082°27'0 0.0
2018-Feb-18 15:29N 27°55' W 082°27'0 0.0
2018-Feb-18 14:59N 27°55' W 082°27'0 0.0
2018-Feb-18 14:29N 27°55' W 082°27'0 0.0
2018-Feb-18 13:59N 27°55' W 082°27'0 0.0
2018-Feb-18 13:29N 27°55' W 082°27'0 0.0
2018-Feb-18 12:59N 27°55' W 082°27'0 0.0
2018-Feb-18 12:29N 27°55' W 082°27'0 0.0
2018-Feb-18 11:59N 27°55' W 082°27'0 0.0
2018-Feb-18 11:29N 27°55' W 082°27'0 0.0
2018-Feb-18 10:59N 27°55' W 082°27'0 0.0
2018-Feb-18 10:29N 27°55' W 082°27'0 0.0
2018-Feb-18 09:56N 27°55' W 082°27'0 0.0
2018-Feb-18 09:29N 27°55' W 082°27'0 0.0
2018-Feb-18 08:59N 27°55' W 082°27'0 0.0
2018-Feb-18 08:29N 27°55' W 082°27'0 0.0
2018-Feb-18 07:59N 27°55' W 082°27'0 0.0
2018-Feb-18 07:29N 27°55' W 082°27'0 0.7
2018-Feb-18 07:00N 27°55' W 082°27'3 6.2
2018-Feb-18 06:29N 27°52' W 082°27'511.1
2018-Feb-18 06:00N 27°47' W 082°30'612.6
2018-Feb-18 05:30N 27°42' W 082°33'713.4
2018-Feb-18 05:00N 27°37' W 082°39'713.9
2018-Feb-18 04:30N 27°37' W 082°47'  
2018-Feb-14 16:58N 27°36' W 082°45'611.6
2018-Feb-14 16:27N 27°38' W 082°38'511.3
2018-Feb-14 16:00N 27°41' W 082°34'510.7
2018-Feb-14 15:30N 27°46' W 082°31'3 6.7
2018-Feb-14 15:00N 27°48' W 082°34'4 4.4
2018-Feb-14 14:09N 27°52' W 082°33'0 0.0
2018-Feb-14 13:57N 27°52' W 082°33'0 0.0
2018-Feb-14 13:27N 27°52' W 082°33'0 0.0
2018-Feb-14 12:51N 27°52' W 082°33'0 0.0
2018-Feb-14 12:27N 27°52' W 082°33'0 0.0
2018-Feb-14 11:53N 27°52' W 082°33'0 0.0
2018-Feb-14 11:29N 27°52' W 082°33'0 0.0
2018-Feb-14 10:59N 27°52' W 082°33'0 0.0
2018-Feb-14 10:23N 27°52' W 082°33'0 0.0
2018-Feb-14 09:53N 27°52' W 082°33'0 0.0
2018-Feb-14 09:29N 27°52' W 082°33'0 0.0
2018-Feb-14 08:59N 27°52' W 082°33'0 0.0
2018-Feb-14 08:29N 27°52' W 082°33'0 0.0
2018-Feb-14 07:47N 27°52' W 082°33'0 0.0
2018-Feb-14 06:35N 27°52' W 082°33'0 0.0
2018-Feb-14 06:23N 27°52' W 082°33'0 0.0
2018-Feb-14 05:59N 27°52' W 082°33'0 0.0
2018-Feb-14 05:23N 27°52' W 082°33'0 0.0
2018-Feb-14 04:59N 27°52' W 082°33'0 0.0
2018-Feb-14 04:29N 27°52' W 082°33'0 0.0
2018-Feb-14 03:59N 27°52' W 082°33'0 0.0
2018-Feb-14 03:29N 27°52' W 082°33'0 0.0
2018-Feb-14 02:59N 27°52' W 082°33'0 0.0
2018-Feb-14 02:29N 27°52' W 082°33'0 0.0
2018-Feb-14 01:53N 27°52' W 082°33'0 0.0
2018-Feb-14 01:11N 27°52' W 082°33'0 0.0
2018-Feb-14 00:59N 27°52' W 082°33'0 0.0
2018-Feb-14 00:23N 27°52' W 082°33'0 0.0
2018-Feb-13 23:59N 27°52' W 082°33'0 0.0
2018-Feb-13 23:29N 27°52' W 082°33'0 0.0
2018-Feb-13 22:59N 27°52' W 082°33'0 0.0
2018-Feb-13 22:17N 27°52' W 082°33'0 0.0
2018-Feb-13 21:59N 27°52' W 082°33'0 0.0
2018-Feb-13 21:23N 27°52' W 082°33'0 0.0
2018-Feb-13 20:47N 27°52' W 082°33'0 0.0
2018-Feb-13 20:23N 27°52' W 082°33'0 0.7
2018-Feb-13 20:00N 27°51' W 082°33'3 5.7
2018-Feb-13 19:30N 27°49' W 082°34'3 6.8
2018-Feb-13 19:00N 27°47' W 082°31'510.2
2018-Feb-13 18:30N 27°51' W 082°27'5 9.2
2018-Feb-13 18:00N 27°55' W 082°27'1 3.0
2018-Feb-13 17:30N 27°57' W 082°27'0 0.7
2018-Feb-13 17:00N 27°57' W 082°27'0 0.0
2018-Feb-13 16:30N 27°57' W 082°27'0 0.0
2018-Feb-13 16:00N 27°57' W 082°27'0 0.0
2018-Feb-13 15:27N 27°57' W 082°27'0 0.0
2018-Feb-13 15:00N 27°57' W 082°27'0 0.0
2018-Feb-13 14:30N 27°57' W 082°27'0 0.0
2018-Feb-13 14:00N 27°57' W 082°27'0 0.0
2018-Feb-13 13:25N 27°57' W 082°27'0 0.0
2018-Feb-13 13:01N 27°57' W 082°27'0 0.0
2018-Feb-13 12:30N 27°57' W 082°27'0 0.0
2018-Feb-13 12:00N 27°57' W 082°27'0 0.0
2018-Feb-13 11:29N 27°57' W 082°27'0 0.0
2018-Feb-13 10:57N 27°57' W 082°27'0 0.0
2018-Feb-13 10:28N 27°57' W 082°27'0 0.0
2018-Feb-13 09:58N 27°57' W 082°27'0 0.0
2018-Feb-13 09:28N 27°57' W 082°27'0 0.0
2018-Feb-13 09:00N 27°57' W 082°27'0 0.0
2018-Feb-13 08:30N 27°57' W 082°27'0 0.0
2018-Feb-13 08:00N 27°57' W 082°27'0 0.0
2018-Feb-13 07:30N 27°57' W 082°27'0 0.0
2018-Feb-13 07:00N 27°57' W 082°27'0 0.0
2018-Feb-13 06:24N 27°57' W 082°27'0 0.0
2018-Feb-13 05:59N 27°57' W 082°27'0 0.4
2018-Feb-13 05:30N 27°57' W 082°27'2 3.0
2018-Feb-13 05:00N 27°55' W 082°27'0 0.6
2018-Feb-13 04:30N 27°55' W 082°27'0 0.0
2018-Feb-13 03:58N 27°55' W 082°27'0 0.0
2018-Feb-13 03:28N 27°55' W 082°27'0 0.0
2018-Feb-13 02:58N 27°55' W 082°27'0 0.0
2018-Feb-13 02:28N 27°55' W 082°27'0 0.0
2018-Feb-13 01:58N 27°55' W 082°27'0 0.0
2018-Feb-13 01:28N 27°55' W 082°27'0 0.0
2018-Feb-13 00:58N 27°55' W 082°27'0 0.0
2018-Feb-13 00:28N 27°55' W 082°27'0 0.0
2018-Feb-12 23:58N 27°55' W 082°27'0 0.0
2018-Feb-12 23:28N 27°55' W 082°27'0 0.0
2018-Feb-12 22:58N 27°55' W 082°27'0 0.0
2018-Feb-12 22:28N 27°55' W 082°27'0 0.0
2018-Feb-12 21:58N 27°55' W 082°27'0 0.0
2018-Feb-12 21:28N 27°55' W 082°27'0 0.0
2018-Feb-12 20:58N 27°55' W 082°27'0 0.0
2018-Feb-12 20:28N 27°55' W 082°27'0 0.0
2018-Feb-12 19:58N 27°55' W 082°27'0 0.0
2018-Feb-12 19:25N 27°55' W 082°27'0 0.0
2018-Feb-12 18:58N 27°55' W 082°27'0 0.0
2018-Feb-12 18:28N 27°55' W 082°27'0 0.0
2018-Feb-12 17:58N 27°55' W 082°27'0 0.0
2018-Feb-12 17:28N 27°55' W 082°27'0 0.0
2018-Feb-12 16:52N 27°55' W 082°27'0 0.0
2018-Feb-12 16:28N 27°55' W 082°27'0 0.0
2018-Feb-12 15:58N 27°55' W 082°27'0 0.0
2018-Feb-12 13:01N 27°55' W 082°27'0 0.0
2018-Feb-12 12:58N 27°55' W 082°27'0 0.0
2018-Feb-12 12:28N 27°55' W 082°27'0 0.0
2018-Feb-12 11:58N 27°55' W 082°27'0 0.0
2018-Feb-12 11:28N 27°55' W 082°27'0 0.0
2018-Feb-12 10:58N 27°55' W 082°27'0 0.0
2018-Feb-12 10:28N 27°55' W 082°27'0 0.0
2018-Feb-12 09:58N 27°55' W 082°27'0 0.0
2018-Feb-12 09:28N 27°55' W 082°27'0 0.0
2018-Feb-12 08:55N 27°55' W 082°27'0 0.0
2018-Feb-12 08:28N 27°55' W 082°27'0 0.0
2018-Feb-12 07:58N 27°55' W 082°27'0 0.0
2018-Feb-12 07:31N 27°55' W 082°27'0 0.0
2018-Feb-12 06:58N 27°55' W 082°27'0 0.0
2018-Feb-12 06:28N 27°55' W 082°27'0 0.0
2018-Feb-12 05:58N 27°55' W 082°27'0 0.0
2018-Feb-12 05:28N 27°55' W 082°27'0 0.0
2018-Feb-12 04:58N 27°55' W 082°27'0 0.0
2018-Feb-12 04:28N 27°55' W 082°27'0 0.0
2018-Feb-12 03:58N 27°55' W 082°27'0 0.0
2018-Feb-12 03:28N 27°55' W 082°27'0 0.0
2018-Feb-12 02:58N 27°55' W 082°27'0 0.2
2018-Feb-12 02:31N 27°55' W 082°27'1 1.8
2018-Feb-12 02:01N 27°54' W 082°26'4 7.8
2018-Feb-12 01:30N 27°50' W 082°27'510.3
2018-Feb-12 01:00N 27°47' W 082°31'611.6
2018-Feb-12 00:30N 27°42' W 082°33'611.7
2018-Feb-12 00:00N 27°38' W 082°38'  
Track history (hours):
 
Tides and Currents Weather Stations Pressure Air Temp Water Temp Dewpoint Dewpoint Depression Visibility Wind Speed Wind Dir Waves Ship Positions

Texas Voyager

Owner: Chevron USA Inc., Washington, DC. More information available from US FCC via Universal Licensing System and Coast Guard Vessel Documentation Center.

Last reported at 2018-Feb-20 13:17 UTC. Time now 2018-Feb-21 17:31 UTC.
Position N 27°36' W 082°44'.

Length 182 m; draft 8.5 m.

Type: Tanker. MMSI: 369142000.

Date/timePositionNaut miles runAvg speedWind from/ knotsBaromVisibWave heightAir tempDewpointWater temp
2018-Feb-20 13:17N 27°36' W 082°44'513.7
2018-Feb-20 12:57N 27°37' W 082°39'613.2
2018-Feb-20 12:30N 27°41' W 082°34'612.1
2018-Feb-20 12:00N 27°47' W 082°31'4 7.9
2018-Feb-20 11:30N 27°50' W 082°34'2 4.4
2018-Feb-20 11:00N 27°52' W 082°33'0 0.0
2018-Feb-20 00:49N 27°52' W 082°33'0 0.0
2018-Feb-19 23:37N 27°52' W 082°33'0 0.0
2018-Feb-19 23:19N 27°52' W 082°33'0 0.0
2018-Feb-19 22:07N 27°52' W 082°33'0 0.0
2018-Feb-19 21:55N 27°52' W 082°33'0 0.0
2018-Feb-19 21:13N 27°52' W 082°33'0 0.0
2018-Feb-19 20:49N 27°52' W 082°33'0 0.0
2018-Feb-19 16:58N 27°52' W 082°33'1 2.9
2018-Feb-19 16:30N 27°50' W 082°34'3 6.5
2018-Feb-19 16:00N 27°47' W 082°33'510.2
2018-Feb-19 15:30N 27°48' W 082°27'510.7
2018-Feb-19 15:01N 27°54' W 082°26'1 2.9
2018-Feb-19 14:30N 27°55' W 082°27'0 0.0
2018-Feb-19 14:00N 27°55' W 082°27'0 0.0
2018-Feb-19 13:30N 27°55' W 082°27'0 0.0
2018-Feb-19 13:00N 27°55' W 082°27'0 0.0
2018-Feb-19 12:29N 27°55' W 082°27'0 0.0
2018-Feb-19 11:59N 27°55' W 082°27'0 0.0
2018-Feb-19 11:29N 27°55' W 082°27'0 0.0
2018-Feb-19 10:59N 27°55' W 082°27'0 0.0
2018-Feb-19 10:29N 27°55' W 082°27'0 0.0
2018-Feb-19 09:59N 27°55' W 082°27'0 0.0
2018-Feb-19 09:29N 27°55' W 082°27'0 0.0
2018-Feb-19 08:59N 27°55' W 082°27'0 0.0
2018-Feb-19 08:23N 27°55' W 082°27'0 0.0
2018-Feb-19 07:59N 27°55' W 082°27'0 0.0
2018-Feb-19 07:29N 27°55' W 082°27'0 0.0
2018-Feb-19 06:59N 27°55' W 082°27'0 0.0
2018-Feb-19 06:29N 27°55' W 082°27'0 0.0
2018-Feb-19 05:59N 27°55' W 082°27'0 0.0
2018-Feb-19 05:29N 27°55' W 082°27'0 0.0
2018-Feb-19 04:59N 27°55' W 082°27'0 0.0
2018-Feb-19 04:29N 27°55' W 082°27'0 0.0
2018-Feb-19 03:59N 27°55' W 082°27'0 0.0
2018-Feb-19 03:29N 27°55' W 082°27'0 0.0
2018-Feb-19 02:59N 27°55' W 082°27'0 0.0
2018-Feb-19 02:29N 27°55' W 082°27'0 0.0
2018-Feb-19 01:59N 27°55' W 082°27'0 0.0
2018-Feb-19 01:29N 27°55' W 082°27'0 0.0
2018-Feb-19 00:59N 27°55' W 082°27'0 0.0
2018-Feb-19 00:29N 27°55' W 082°27'0 0.0
2018-Feb-18 23:59N 27°55' W 082°27'0 0.0
2018-Feb-18 23:29N 27°55' W 082°27'0 0.0
2018-Feb-18 22:59N 27°55' W 082°27'0 0.0
2018-Feb-18 22:29N 27°55' W 082°27'0 0.0
2018-Feb-18 21:59N 27°55' W 082°27'0 0.0
2018-Feb-18 21:29N 27°55' W 082°27'0 0.0
2018-Feb-18 20:59N 27°55' W 082°27'0 0.0
2018-Feb-18 20:26N 27°55' W 082°27'0 0.0
2018-Feb-18 19:59N 27°55' W 082°27'0 0.0
2018-Feb-18 19:29N 27°55' W 082°27'0 0.0
2018-Feb-18 18:59N 27°55' W 082°27'0 0.0
2018-Feb-18 18:29N 27°55' W 082°27'0 0.0
2018-Feb-18 17:59N 27°55' W 082°27'0 0.0
2018-Feb-18 17:26N 27°55' W 082°27'0 0.0
2018-Feb-18 16:59N 27°55' W 082°27'0 0.0
2018-Feb-18 16:29N 27°55' W 082°27'0 0.0
2018-Feb-18 15:59N 27°55' W 082°27'0 0.0
2018-Feb-18 15:29N 27°55' W 082°27'0 0.0
2018-Feb-18 14:59N 27°55' W 082°27'0 0.0
2018-Feb-18 14:29N 27°55' W 082°27'0 0.0
2018-Feb-18 13:59N 27°55' W 082°27'0 0.0
2018-Feb-18 13:29N 27°55' W 082°27'0 0.0
2018-Feb-18 12:59N 27°55' W 082°27'0 0.0
2018-Feb-18 12:29N 27°55' W 082°27'0 0.0
2018-Feb-18 11:59N 27°55' W 082°27'0 0.0
2018-Feb-18 11:29N 27°55' W 082°27'0 0.0
2018-Feb-18 10:59N 27°55' W 082°27'0 0.0
2018-Feb-18 10:29N 27°55' W 082°27'0 0.0
2018-Feb-18 09:56N 27°55' W 082°27'0 0.0
2018-Feb-18 09:29N 27°55' W 082°27'0 0.0
2018-Feb-18 08:59N 27°55' W 082°27'0 0.0
2018-Feb-18 08:29N 27°55' W 082°27'0 0.0
2018-Feb-18 07:59N 27°55' W 082°27'0 0.0
2018-Feb-18 07:29N 27°55' W 082°27'0 0.7
2018-Feb-18 07:00N 27°55' W 082°27'3 6.2
2018-Feb-18 06:29N 27°52' W 082°27'511.1
2018-Feb-18 06:00N 27°47' W 082°30'612.6
2018-Feb-18 05:30N 27°42' W 082°33'713.4
2018-Feb-18 05:00N 27°37' W 082°39'713.9
2018-Feb-18 04:30N 27°37' W 082°47'  
2018-Feb-14 16:58N 27°36' W 082°45'611.6
2018-Feb-14 16:27N 27°38' W 082°38'511.3
2018-Feb-14 16:00N 27°41' W 082°34'510.7
2018-Feb-14 15:30N 27°46' W 082°31'3 6.7
2018-Feb-14 15:00N 27°48' W 082°34'4 4.4
2018-Feb-14 14:09N 27°52' W 082°33'0 0.0
2018-Feb-14 13:57N 27°52' W 082°33'0 0.0
2018-Feb-14 13:27N 27°52' W 082°33'0 0.0
2018-Feb-14 12:51N 27°52' W 082°33'0 0.0
2018-Feb-14 12:27N 27°52' W 082°33'0 0.0
2018-Feb-14 11:53N 27°52' W 082°33'0 0.0
2018-Feb-14 11:29N 27°52' W 082°33'0 0.0
2018-Feb-14 10:59N 27°52' W 082°33'0 0.0
2018-Feb-14 10:23N 27°52' W 082°33'0 0.0
2018-Feb-14 09:53N 27°52' W 082°33'0 0.0
2018-Feb-14 09:29N 27°52' W 082°33'0 0.0
2018-Feb-14 08:59N 27°52' W 082°33'0 0.0
2018-Feb-14 08:29N 27°52' W 082°33'0 0.0
2018-Feb-14 07:47N 27°52' W 082°33'0 0.0
2018-Feb-14 06:35N 27°52' W 082°33'0 0.0
2018-Feb-14 06:23N 27°52' W 082°33'0 0.0
2018-Feb-14 05:59N 27°52' W 082°33'0 0.0
2018-Feb-14 05:23N 27°52' W 082°33'0 0.0
2018-Feb-14 04:59N 27°52' W 082°33'0 0.0
2018-Feb-14 04:29N 27°52' W 082°33'0 0.0
2018-Feb-14 03:59N 27°52' W 082°33'0 0.0
2018-Feb-14 03:29N 27°52' W 082°33'0 0.0
2018-Feb-14 02:59N 27°52' W 082°33'0 0.0
2018-Feb-14 02:29N 27°52' W 082°33'0 0.0
2018-Feb-14 01:53N 27°52' W 082°33'0 0.0
2018-Feb-14 01:11N 27°52' W 082°33'0 0.0
2018-Feb-14 00:59N 27°52' W 082°33'0 0.0
2018-Feb-14 00:23N 27°52' W 082°33'0 0.0
2018-Feb-13 23:59N 27°52' W 082°33'0 0.0
2018-Feb-13 23:29N 27°52' W 082°33'0 0.0
2018-Feb-13 22:59N 27°52' W 082°33'0 0.0
2018-Feb-13 22:17N 27°52' W 082°33'0 0.0
2018-Feb-13 21:59N 27°52' W 082°33'0 0.0
2018-Feb-13 21:23N 27°52' W 082°33'0 0.0
2018-Feb-13 20:47N 27°52' W 082°33'0 0.0
2018-Feb-13 20:23N 27°52' W 082°33'0 0.7
2018-Feb-13 20:00N 27°51' W 082°33'3 5.7
2018-Feb-13 19:30N 27°49' W 082°34'3 6.8
2018-Feb-13 19:00N 27°47' W 082°31'510.2
2018-Feb-13 18:30N 27°51' W 082°27'5 9.2
2018-Feb-13 18:00N 27°55' W 082°27'1 3.0
2018-Feb-13 17:30N 27°57' W 082°27'0 0.7
2018-Feb-13 17:00N 27°57' W 082°27'0 0.0
2018-Feb-13 16:30N 27°57' W 082°27'0 0.0
2018-Feb-13 16:00N 27°57' W 082°27'0 0.0
2018-Feb-13 15:27N 27°57' W 082°27'0 0.0
2018-Feb-13 15:00N 27°57' W 082°27'0 0.0
2018-Feb-13 14:30N 27°57' W 082°27'0 0.0
2018-Feb-13 14:00N 27°57' W 082°27'0 0.0
2018-Feb-13 13:25N 27°57' W 082°27'0 0.0
2018-Feb-13 13:01N 27°57' W 082°27'0 0.0
2018-Feb-13 12:30N 27°57' W 082°27'0 0.0
2018-Feb-13 12:00N 27°57' W 082°27'0 0.0
2018-Feb-13 11:29N 27°57' W 082°27'0 0.0
2018-Feb-13 10:57N 27°57' W 082°27'0 0.0
2018-Feb-13 10:28N 27°57' W 082°27'0 0.0
2018-Feb-13 09:58N 27°57' W 082°27'0 0.0
2018-Feb-13 09:28N 27°57' W 082°27'0 0.0
2018-Feb-13 09:00N 27°57' W 082°27'0 0.0
2018-Feb-13 08:30N 27°57' W 082°27'0 0.0
2018-Feb-13 08:00N 27°57' W 082°27'0 0.0
2018-Feb-13 07:30N 27°57' W 082°27'0 0.0
2018-Feb-13 07:00N 27°57' W 082°27'0 0.0
2018-Feb-13 06:24N 27°57' W 082°27'0 0.0
2018-Feb-13 05:59N 27°57' W 082°27'0 0.4
2018-Feb-13 05:30N 27°57' W 082°27'2 3.0
2018-Feb-13 05:00N 27°55' W 082°27'0 0.6
2018-Feb-13 04:30N 27°55' W 082°27'0 0.0
2018-Feb-13 03:58N 27°55' W 082°27'0 0.0
2018-Feb-13 03:28N 27°55' W 082°27'0 0.0
2018-Feb-13 02:58N 27°55' W 082°27'0 0.0
2018-Feb-13 02:28N 27°55' W 082°27'0 0.0
2018-Feb-13 01:58N 27°55' W 082°27'0 0.0
2018-Feb-13 01:28N 27°55' W 082°27'0 0.0
2018-Feb-13 00:58N 27°55' W 082°27'0 0.0
2018-Feb-13 00:28N 27°55' W 082°27'0 0.0
2018-Feb-12 23:58N 27°55' W 082°27'0 0.0
2018-Feb-12 23:28N 27°55' W 082°27'0 0.0
2018-Feb-12 22:58N 27°55' W 082°27'0 0.0
2018-Feb-12 22:28N 27°55' W 082°27'0 0.0
2018-Feb-12 21:58N 27°55' W 082°27'0 0.0
2018-Feb-12 21:28N 27°55' W 082°27'0 0.0
2018-Feb-12 20:58N 27°55' W 082°27'0 0.0
2018-Feb-12 20:28N 27°55' W 082°27'0 0.0
2018-Feb-12 19:58N 27°55' W 082°27'0 0.0
2018-Feb-12 19:25N 27°55' W 082°27'0 0.0
2018-Feb-12 18:58N 27°55' W 082°27'0 0.0
2018-Feb-12 18:28N 27°55' W 082°27'0 0.0
2018-Feb-12 17:58N 27°55' W 082°27'0 0.0
2018-Feb-12 17:28N 27°55' W 082°27'0 0.0
2018-Feb-12 16:52N 27°55' W 082°27'0 0.0
2018-Feb-12 16:28N 27°55' W 082°27'0 0.0
2018-Feb-12 15:58N 27°55' W 082°27'0 0.0
2018-Feb-12 13:01N 27°55' W 082°27'0 0.0
2018-Feb-12 12:58N 27°55' W 082°27'0 0.0
2018-Feb-12 12:28N 27°55' W 082°27'0 0.0
2018-Feb-12 11:58N 27°55' W 082°27'0 0.0
2018-Feb-12 11:28N 27°55' W 082°27'0 0.0
2018-Feb-12 10:58N 27°55' W 082°27'0 0.0
2018-Feb-12 10:28N 27°55' W 082°27'0 0.0
2018-Feb-12 09:58N 27°55' W 082°27'0 0.0
2018-Feb-12 09:28N 27°55' W 082°27'0 0.0
2018-Feb-12 08:55N 27°55' W 082°27'0 0.0
2018-Feb-12 08:28N 27°55' W 082°27'0 0.0
2018-Feb-12 07:58N 27°55' W 082°27'0 0.0
2018-Feb-12 07:31N 27°55' W 082°27'0 0.0
2018-Feb-12 06:58N 27°55' W 082°27'0 0.0
2018-Feb-12 06:28N 27°55' W 082°27'0 0.0
2018-Feb-12 05:58N 27°55' W 082°27'0 0.0
2018-Feb-12 05:28N 27°55' W 082°27'0 0.0
2018-Feb-12 04:58N 27°55' W 082°27'0 0.0
2018-Feb-12 04:28N 27°55' W 082°27'0 0.0
2018-Feb-12 03:58N 27°55' W 082°27'0 0.0
2018-Feb-12 03:28N 27°55' W 082°27'0 0.0
2018-Feb-12 02:58N 27°55' W 082°27'0 0.2
2018-Feb-12 02:31N 27°55' W 082°27'1 1.8
2018-Feb-12 02:01N 27°54' W 082°26'4 7.8
2018-Feb-12 01:30N 27°50' W 082°27'510.3
2018-Feb-12 01:00N 27°47' W 082°31'611.6
2018-Feb-12 00:30N 27°42' W 082°33'611.7
2018-Feb-12 00:00N 27°38' W 082°38'  

Dump ship's entire track history